createdAt,value
2023-11-14T00:01:31.083Z,19.80
2023-11-14T00:03:57.821Z,19.80
2023-11-14T00:06:24.489Z,19.80
2023-11-14T00:08:51.180Z,19.80
2023-11-14T00:11:17.937Z,19.80
2023-11-14T00:13:46.619Z,19.80
2023-11-14T00:16:13.518Z,19.80
2023-11-14T00:18:40.231Z,19.80
2023-11-14T00:21:07.290Z,19.80
2023-11-14T00:23:34.358Z,19.80
2023-11-14T00:26:01.098Z,19.80
2023-11-14T00:28:27.921Z,19.80
2023-11-14T00:30:54.704Z,19.70
2023-11-14T00:33:22.989Z,19.80
2023-11-14T00:35:49.702Z,19.80
2023-11-14T00:38:17.032Z,19.80
2023-11-14T00:40:44.275Z,19.70
2023-11-14T00:43:10.997Z,19.70
2023-11-14T00:45:37.705Z,19.70
2023-11-14T00:48:04.760Z,19.80
2023-11-14T00:50:31.739Z,19.80
2023-11-14T00:52:58.433Z,19.80
2023-11-14T00:55:25.116Z,19.70
2023-11-14T00:57:51.773Z,19.70
2023-11-14T01:00:19.155Z,19.70
2023-11-14T01:02:46.885Z,19.70
2023-11-14T01:05:13.849Z,19.70
2023-11-14T01:07:41.514Z,19.70
2023-11-14T01:10:08.920Z,19.70
2023-11-14T01:12:35.596Z,19.70
2023-11-14T01:15:02.465Z,19.70
2023-11-14T01:17:29.354Z,19.70
2023-11-14T01:19:56.120Z,19.70
2023-11-14T01:22:22.889Z,19.60
2023-11-14T01:24:49.548Z,19.60
2023-11-14T01:27:17.025Z,19.70
2023-11-14T01:29:47.200Z,19.60
2023-11-14T01:32:13.884Z,19.60
2023-11-14T01:34:40.597Z,19.60
2023-11-14T01:37:07.331Z,19.70
2023-11-14T01:39:34.604Z,19.60
2023-11-14T01:42:01.275Z,19.60
2023-11-14T01:44:27.913Z,19.60
2023-11-14T01:46:55.377Z,19.60
2023-11-14T01:49:23.205Z,19.60
2023-11-14T01:51:50.036Z,19.60
2023-11-14T01:54:17.854Z,19.60
2023-11-14T01:56:44.580Z,19.60
2023-11-14T01:59:11.890Z,19.60
2023-11-14T02:01:39.098Z,19.60
2023-11-14T02:04:13.786Z,19.60
2023-11-14T02:06:40.498Z,19.60
2023-11-14T02:09:08.645Z,19.60
2023-11-14T02:11:36.227Z,19.60
2023-11-14T02:14:03.141Z,19.60
2023-11-14T02:16:50.279Z,19.60
2023-11-14T02:19:17.411Z,19.60
2023-11-14T02:21:44.329Z,19.50
2023-11-14T02:24:16.145Z,19.60
2023-11-14T02:26:48.277Z,19.60
2023-11-14T02:29:16.811Z,19.60
2023-11-14T02:31:43.702Z,19.60
2023-11-14T02:34:11.359Z,19.50
2023-11-14T02:36:41.568Z,19.50
2023-11-14T02:39:11.994Z,19.50
2023-11-14T02:41:38.983Z,19.60
2023-11-14T02:44:06.230Z,19.60
2023-11-14T02:46:33.934Z,19.60
2023-11-14T02:49:34.583Z,19.50
2023-11-14T02:52:02.255Z,19.50
2023-11-14T02:54:28.916Z,19.50
2023-11-14T02:56:55.620Z,19.50
2023-11-14T02:59:22.502Z,19.50
2023-11-14T03:01:49.189Z,19.50
2023-11-14T03:04:16.292Z,19.50
2023-11-14T03:06:43.020Z,19.50
2023-11-14T03:09:09.701Z,19.50
2023-11-14T03:11:36.413Z,19.50
2023-11-14T03:14:04.475Z,19.50
2023-11-14T03:16:31.420Z,19.50
2023-11-14T03:18:58.109Z,19.50
2023-11-14T03:21:24.745Z,19.50
2023-11-14T03:23:51.527Z,19.50
2023-11-14T03:26:18.230Z,19.50
2023-11-14T03:28:44.968Z,19.50
2023-11-14T03:31:11.668Z,19.50
2023-11-14T03:33:38.595Z,19.50
2023-11-14T03:36:05.681Z,19.50
2023-11-14T03:38:32.395Z,19.50
2023-11-14T03:40:59.052Z,19.50
2023-11-14T03:43:25.686Z,19.50
2023-11-14T03:45:52.402Z,19.50
2023-11-14T03:48:19.071Z,19.50
2023-11-14T03:50:46.682Z,19.40
2023-11-14T03:53:13.491Z,19.40
2023-11-14T03:55:40.190Z,19.50
2023-11-14T03:58:08.133Z,19.40
2023-11-14T04:00:34.803Z,19.40
2023-11-14T04:03:01.473Z,19.40
2023-11-14T04:05:28.236Z,19.40
2023-11-14T04:07:54.908Z,19.40
2023-11-14T04:10:22.054Z,19.40
2023-11-14T04:12:49.318Z,19.40
2023-11-14T04:15:16.124Z,19.40
2023-11-14T04:17:42.882Z,19.40
2023-11-14T04:20:11.074Z,19.30
2023-11-14T04:22:37.942Z,19.30
2023-11-14T04:25:05.037Z,19.40
2023-11-14T04:27:31.813Z,19.40
2023-11-14T04:29:58.451Z,19.40
2023-11-14T04:32:25.374Z,19.40
2023-11-14T04:34:52.289Z,19.40
2023-11-14T04:37:18.933Z,19.40
2023-11-14T04:39:45.667Z,19.40
2023-11-14T04:42:12.417Z,19.40
2023-11-14T04:44:39.142Z,19.40
2023-11-14T04:47:09.114Z,19.40
2023-11-14T04:49:35.955Z,19.30
2023-11-14T04:52:03.409Z,19.40
2023-11-14T04:54:30.057Z,19.40
2023-11-14T04:56:56.677Z,19.30
2023-11-14T04:59:23.534Z,19.40
2023-11-14T05:01:50.364Z,19.40
2023-11-14T05:04:17.064Z,19.30
2023-11-14T05:06:46.070Z,19.40
2023-11-14T05:09:14.544Z,19.40
2023-11-14T05:11:41.193Z,19.40
2023-11-14T05:14:08.177Z,19.40
2023-11-14T05:16:44.358Z,19.40
2023-11-14T05:19:11.287Z,19.40
2023-11-14T05:21:39.362Z,19.30
2023-11-14T05:24:08.483Z,19.40
2023-11-14T05:26:35.225Z,19.40
2023-11-14T05:29:01.928Z,19.30
2023-11-14T05:31:28.575Z,19.40
2023-11-14T05:33:55.232Z,19.40
2023-11-14T05:36:21.889Z,19.40
2023-11-14T05:38:48.866Z,19.50
2023-11-14T05:41:15.649Z,19.50
2023-11-14T05:43:42.458Z,19.50
2023-11-14T05:46:12.052Z,19.50
2023-11-14T05:48:39.336Z,19.00
2023-11-14T05:51:06.196Z,19.50
2023-11-14T05:53:33.311Z,19.50
2023-11-14T05:56:05.955Z,19.50
2023-11-14T05:58:32.779Z,19.60
2023-11-14T06:00:59.436Z,19.50
2023-11-14T06:03:26.250Z,19.60
2023-11-14T06:05:52.969Z,19.50
2023-11-14T06:08:19.744Z,19.60
2023-11-14T06:10:46.448Z,19.50
2023-11-14T06:13:13.106Z,19.60
2023-11-14T06:15:39.801Z,19.60
2023-11-14T06:18:06.744Z,19.60
2023-11-14T06:20:35.908Z,19.60
2023-11-14T06:23:02.564Z,19.60
2023-11-14T06:25:29.344Z,19.60
2023-11-14T06:27:56.010Z,19.60
2023-11-14T06:30:23.151Z,19.70
2023-11-14T06:32:49.886Z,19.60
2023-11-14T06:35:16.698Z,19.70
2023-11-14T06:37:45.368Z,19.70
2023-11-14T06:40:12.736Z,19.80
2023-11-14T06:42:39.468Z,19.70
2023-11-14T06:45:07.064Z,19.70
2023-11-14T06:47:33.972Z,19.70
2023-11-14T06:50:00.692Z,19.70
2023-11-14T06:52:27.487Z,19.70
2023-11-14T06:54:54.322Z,19.70
2023-11-14T06:57:21.928Z,19.80
2023-11-14T06:59:49.243Z,19.80
2023-11-14T07:02:16.045Z,19.80
2023-11-14T07:04:42.934Z,19.70
2023-11-14T07:07:09.810Z,19.70
2023-11-14T07:09:37.044Z,19.70
2023-11-14T07:12:03.889Z,19.70
2023-11-14T07:14:30.730Z,19.70
2023-11-14T07:16:58.281Z,19.70
2023-11-14T07:19:25.306Z,19.80
2023-11-14T07:21:51.953Z,19.80
2023-11-14T07:24:19.010Z,19.80
2023-11-14T07:26:45.792Z,19.80
2023-11-14T07:29:13.866Z,19.70
2023-11-14T07:31:40.778Z,19.70
2023-11-14T07:34:07.974Z,19.70
2023-11-14T07:36:35.028Z,19.70
2023-11-14T07:39:01.694Z,19.70
2023-11-14T07:41:28.413Z,19.80
2023-11-14T07:43:56.156Z,19.70
2023-11-14T07:46:23.277Z,19.80
2023-11-14T07:48:50.378Z,19.70
2023-11-14T07:51:17.293Z,19.80
2023-11-14T07:53:51.012Z,19.80
2023-11-14T07:56:17.802Z,19.70
2023-11-14T07:58:44.526Z,19.80
2023-11-14T08:01:11.254Z,19.70
2023-11-14T08:03:38.408Z,19.70
2023-11-14T08:06:05.742Z,19.70
2023-11-14T08:08:33.847Z,19.70
2023-11-14T08:11:01.888Z,19.70
2023-11-14T08:13:28.600Z,19.70
2023-11-14T08:15:55.241Z,19.70
2023-11-14T08:18:22.093Z,19.70
2023-11-14T08:20:48.797Z,19.70
2023-11-14T08:23:15.599Z,19.70
2023-11-14T08:25:42.333Z,19.70
2023-11-14T08:28:10.566Z,19.70
2023-11-14T08:30:37.212Z,19.70
2023-11-14T08:33:04.031Z,19.70
2023-11-14T08:35:32.801Z,19.70
2023-11-14T08:38:07.005Z,19.70
2023-11-14T08:40:40.514Z,19.70
2023-11-14T08:43:07.224Z,19.70
2023-11-14T08:45:33.986Z,19.70
2023-11-14T08:48:02.366Z,19.70
2023-11-14T08:50:29.111Z,19.70
2023-11-14T08:52:55.800Z,19.70
2023-11-14T08:55:22.547Z,19.70
2023-11-14T08:57:49.242Z,19.70
2023-11-14T09:00:16.830Z,19.70
2023-11-14T09:02:43.650Z,19.70
2023-11-14T09:05:10.779Z,19.70
2023-11-14T09:07:37.780Z,19.70
2023-11-14T09:10:05.440Z,19.70
2023-11-14T09:12:33.653Z,19.70
2023-11-14T09:15:01.278Z,19.70
2023-11-14T09:17:28.722Z,19.70
2023-11-14T09:19:57.051Z,19.70
2023-11-14T09:22:26.412Z,19.70
2023-11-14T09:24:55.124Z,19.80
2023-11-14T09:27:24.613Z,19.60
2023-11-14T09:29:53.213Z,19.60
2023-11-14T09:32:20.488Z,19.70
2023-11-14T09:34:48.260Z,19.70
2023-11-14T09:37:16.052Z,19.70
2023-11-14T09:39:43.494Z,19.70
2023-11-14T09:42:10.902Z,19.80
2023-11-14T09:44:39.093Z,19.80
2023-11-14T09:47:09.713Z,19.80
2023-11-14T09:49:39.500Z,19.80
2023-11-14T09:52:07.019Z,19.80
2023-11-14T09:54:34.608Z,19.80
2023-11-14T09:57:02.113Z,19.70
2023-11-14T09:59:29.347Z,19.70
2023-11-14T10:01:56.093Z,19.70
2023-11-14T10:04:22.909Z,19.70
2023-11-14T10:06:52.225Z,19.70
2023-11-14T10:09:20.154Z,19.80
2023-11-14T10:12:11.991Z,19.80
2023-11-14T10:14:47.297Z,19.80
2023-11-14T10:17:15.176Z,19.80
2023-11-14T10:20:02.210Z,19.90
2023-11-14T10:22:30.474Z,20.00
2023-11-14T10:24:58.007Z,19.90
2023-11-14T10:27:29.218Z,20.00
2023-11-14T10:29:56.563Z,20.00
2023-11-14T10:32:25.290Z,20.00
2023-11-14T10:34:53.104Z,20.00
2023-11-14T10:37:31.163Z,20.00
2023-11-14T10:39:58.588Z,20.00
2023-11-14T10:42:26.189Z,20.10
2023-11-14T10:45:02.503Z,20.10
2023-11-14T10:47:43.214Z,20.10
2023-11-14T10:50:29.447Z,20.10
2023-11-14T10:53:01.173Z,20.10
2023-11-14T10:55:28.933Z,20.10
2023-11-14T10:57:56.319Z,20.10
2023-11-14T11:00:23.248Z,20.20
2023-11-14T11:02:54.690Z,20.20
2023-11-14T11:05:30.150Z,20.20
2023-11-14T11:08:00.069Z,20.20
2023-11-14T11:10:33.914Z,20.20
2023-11-14T11:13:08.604Z,20.20
2023-11-14T11:15:47.170Z,20.20
2023-11-14T11:18:16.451Z,20.20
2023-11-14T11:20:43.292Z,20.20
2023-11-14T11:23:14.479Z,20.20
2023-11-14T11:25:46.120Z,20.20
2023-11-14T11:28:22.119Z,20.30
2023-11-14T11:31:07.741Z,20.20
2023-11-14T11:33:38.743Z,20.20
2023-11-14T11:36:26.754Z,20.30
2023-11-14T11:38:54.275Z,20.30
2023-11-14T11:41:22.548Z,20.30
2023-11-14T11:44:02.302Z,20.30
2023-11-14T11:46:35.626Z,20.30
2023-11-14T11:49:11.522Z,20.30
2023-11-14T11:51:44.748Z,20.30
2023-11-14T11:54:26.392Z,20.30
2023-11-14T11:57:10.486Z,20.40
2023-11-14T11:59:43.171Z,20.30
2023-11-14T12:02:15.320Z,20.30
2023-11-14T12:04:43.754Z,20.40
2023-11-14T12:07:10.735Z,20.40
2023-11-14T12:09:38.360Z,20.40
2023-11-14T12:12:05.346Z,20.40
2023-11-14T12:14:32.174Z,20.40
2023-11-14T12:17:00.281Z,20.40
2023-11-14T12:19:27.807Z,20.40
2023-11-14T12:21:55.441Z,20.40
2023-11-14T12:24:26.125Z,20.40
2023-11-14T12:26:53.233Z,20.40
2023-11-14T12:29:20.463Z,20.40
2023-11-14T12:31:48.313Z,20.50
2023-11-14T12:34:31.308Z,20.50
2023-11-14T12:37:13.567Z,20.40
2023-11-14T12:39:40.257Z,20.40
2023-11-14T12:42:07.668Z,20.40
2023-11-14T12:44:35.662Z,20.40
2023-11-14T12:49:29.935Z,20.50
2023-11-14T12:51:58.637Z,20.50
2023-11-14T12:54:26.706Z,20.60
2023-11-14T12:56:55.406Z,20.60
2023-11-14T12:59:22.514Z,20.60
2023-11-14T13:01:50.592Z,20.60
2023-11-14T13:04:18.065Z,20.60
2023-11-14T13:06:47.549Z,20.60
2023-11-14T13:09:17.263Z,20.60
2023-11-14T13:11:44.308Z,20.60
2023-11-14T13:14:11.778Z,20.60
2023-11-14T13:16:38.815Z,20.60
2023-11-14T13:19:06.675Z,20.60
2023-11-14T13:21:33.435Z,20.60
2023-11-14T13:24:00.202Z,20.60
2023-11-14T13:26:27.078Z,20.60
2023-11-14T13:28:53.797Z,20.60
2023-11-14T13:31:20.642Z,20.60
2023-11-14T13:33:47.838Z,20.60
2023-11-14T13:36:19.753Z,20.50
2023-11-14T13:38:46.912Z,20.50
2023-11-14T13:41:16.497Z,20.50
2023-11-14T13:43:44.465Z,20.50
2023-11-14T13:46:21.133Z,20.50
2023-11-14T13:48:54.586Z,20.50
2023-11-14T13:51:21.434Z,20.50
2023-11-14T13:53:48.366Z,20.50
2023-11-14T13:56:15.395Z,20.50
2023-11-14T13:58:43.544Z,20.50
2023-11-14T14:01:10.984Z,20.50
2023-11-14T14:03:38.717Z,20.50
2023-11-14T14:06:09.886Z,20.50
2023-11-14T14:08:37.297Z,20.50
2023-11-14T14:11:08.041Z,20.50
2023-11-14T14:13:35.478Z,20.50
2023-11-14T14:16:03.832Z,20.50
2023-11-14T14:18:32.371Z,20.50
2023-11-14T14:21:03.605Z,20.50
2023-11-14T14:23:31.140Z,20.50
2023-11-14T14:25:58.435Z,20.50
2023-11-14T14:28:31.120Z,20.50
2023-11-14T14:31:00.512Z,20.50
2023-11-14T14:33:27.682Z,20.50
2023-11-14T14:35:54.829Z,20.50
2023-11-14T14:38:22.075Z,20.50
2023-11-14T14:40:49.949Z,20.50
2023-11-14T14:43:17.000Z,20.50
2023-11-14T14:45:45.185Z,20.50
2023-11-14T14:48:12.043Z,20.50
2023-11-14T14:50:38.796Z,20.50
2023-11-14T14:53:06.016Z,20.40
2023-11-14T14:55:33.033Z,20.50
2023-11-14T14:58:04.873Z,20.50
2023-11-14T15:00:32.824Z,20.50
2023-11-14T15:03:00.874Z,20.50
2023-11-14T15:05:35.854Z,20.50
2023-11-14T15:08:04.582Z,20.50
2023-11-14T15:10:31.898Z,20.50
2023-11-14T15:12:59.994Z,20.50
2023-11-14T15:15:27.595Z,20.60
2023-11-14T15:17:58.221Z,20.60
2023-11-14T15:20:26.281Z,20.60
2023-11-14T15:22:53.776Z,20.60
2023-11-14T15:25:20.779Z,20.50
2023-11-14T15:27:47.593Z,20.40
2023-11-14T15:30:15.229Z,20.50
2023-11-14T15:32:42.983Z,20.40
2023-11-14T15:35:09.925Z,20.40
2023-11-14T15:37:37.045Z,20.40
2023-11-14T15:40:09.023Z,20.40
2023-11-14T15:42:36.230Z,20.50
2023-11-14T15:45:04.597Z,20.50
2023-11-14T15:47:31.707Z,20.50
2023-11-14T15:49:58.874Z,20.40
2023-11-14T15:52:25.767Z,20.40
2023-11-14T15:54:55.777Z,20.40
2023-11-14T15:57:24.019Z,20.40
2023-11-14T15:59:50.846Z,20.40
2023-11-14T16:02:17.630Z,20.40
2023-11-14T16:04:44.337Z,20.40
2023-11-14T16:07:11.031Z,20.40
2023-11-14T16:09:40.210Z,20.40
2023-11-14T16:12:08.509Z,20.40
2023-11-14T16:14:38.289Z,20.40
2023-11-14T16:17:05.629Z,20.40
2023-11-14T16:19:37.726Z,20.40
2023-11-14T16:22:05.457Z,20.50
2023-11-14T16:24:32.271Z,20.50
2023-11-14T16:26:59.643Z,20.50
2023-11-14T16:29:26.397Z,20.50
2023-11-14T16:31:53.175Z,20.40
2023-11-14T16:34:19.925Z,20.40
2023-11-14T16:36:46.757Z,20.40
2023-11-14T16:39:13.448Z,20.40
2023-11-14T16:41:41.361Z,20.40
2023-11-14T16:44:08.222Z,20.50
2023-11-14T16:46:35.538Z,20.50
2023-11-14T16:49:02.298Z,20.50
2023-11-14T16:51:32.470Z,20.50
2023-11-14T16:54:00.940Z,20.60
2023-11-14T16:56:27.851Z,20.70
2023-11-14T16:58:54.704Z,20.70
2023-11-14T17:01:21.985Z,20.70
2023-11-14T17:03:48.926Z,20.70
2023-11-14T17:06:15.663Z,20.70
2023-11-14T17:08:42.408Z,20.70
2023-11-14T17:11:09.735Z,20.70
2023-11-14T17:13:36.424Z,20.70
2023-11-14T17:16:04.493Z,20.70
2023-11-14T17:18:31.624Z,20.70
2023-11-14T17:20:58.703Z,20.70
2023-11-14T17:23:29.472Z,20.70
2023-11-14T17:25:56.538Z,20.80
2023-11-14T17:28:23.696Z,20.90
2023-11-14T17:30:50.606Z,20.80
2023-11-14T17:33:18.625Z,20.70
2023-11-14T17:35:45.623Z,20.60
2023-11-14T17:38:14.340Z,20.60
2023-11-14T17:40:41.634Z,20.60
2023-11-14T17:43:08.408Z,20.50
2023-11-14T17:45:37.556Z,20.50
2023-11-14T17:48:08.689Z,20.40
2023-11-14T17:50:37.319Z,20.40
2023-11-14T17:53:04.995Z,20.50
2023-11-14T17:55:32.492Z,20.60
2023-11-14T17:57:59.257Z,20.60
2023-11-14T18:00:27.464Z,20.60
2023-11-14T18:02:57.172Z,20.70
2023-11-14T18:05:25.792Z,20.60
2023-11-14T18:07:53.118Z,20.50
2023-11-14T18:10:20.170Z,20.50
2023-11-14T18:12:50.483Z,20.40
2023-11-14T18:15:17.981Z,20.40
2023-11-14T18:17:44.793Z,20.50
2023-11-14T18:20:12.530Z,20.50
2023-11-14T18:22:39.327Z,20.50
2023-11-14T18:25:06.164Z,20.40
2023-11-14T18:27:32.929Z,20.40
2023-11-14T18:29:59.591Z,20.40
2023-11-14T18:32:26.479Z,20.40
2023-11-14T18:34:55.981Z,20.40
2023-11-14T18:37:25.487Z,20.40
2023-11-14T18:39:52.869Z,20.40
2023-11-14T18:42:20.245Z,20.40
2023-11-14T18:44:58.470Z,20.40
2023-11-14T18:47:32.256Z,20.40
2023-11-14T18:49:59.332Z,20.40
2023-11-14T18:52:26.831Z,20.40
2023-11-14T18:54:54.135Z,20.40
2023-11-14T18:57:21.429Z,20.40
2023-11-14T18:59:48.192Z,20.40
2023-11-14T19:02:15.862Z,20.40
2023-11-14T19:04:42.644Z,20.40
2023-11-14T19:07:09.383Z,20.40
2023-11-14T19:09:36.184Z,20.40
2023-11-14T19:12:04.815Z,20.40
2023-11-14T19:14:32.008Z,20.40
2023-11-14T19:16:59.644Z,20.40
2023-11-14T19:19:26.935Z,20.40
2023-11-14T19:21:53.944Z,20.40
2023-11-14T19:24:21.086Z,20.30
2023-11-14T19:26:47.953Z,20.30
2023-11-14T19:29:15.692Z,20.30
2023-11-14T19:31:43.733Z,20.40
2023-11-14T19:34:10.901Z,20.40
2023-11-14T19:36:37.899Z,20.30
2023-11-14T19:39:05.913Z,20.30
2023-11-14T19:41:32.846Z,20.30
2023-11-14T19:43:59.575Z,20.30
2023-11-14T19:46:26.223Z,20.40
2023-11-14T19:48:52.897Z,20.30
2023-11-14T19:51:19.553Z,20.30
2023-11-14T19:53:46.493Z,20.30
2023-11-14T19:56:13.421Z,20.30
2023-11-14T19:58:40.161Z,20.30
2023-11-14T20:01:06.800Z,20.30
2023-11-14T20:03:33.653Z,20.40
2023-11-14T20:06:03.377Z,20.30
2023-11-14T20:08:31.492Z,20.30
2023-11-14T20:10:58.192Z,20.30
2023-11-14T20:13:24.916Z,20.30
2023-11-14T20:15:51.621Z,20.30
2023-11-14T20:18:18.378Z,20.30
2023-11-14T20:20:45.172Z,20.40
2023-11-14T20:23:11.899Z,20.30
2023-11-14T20:25:41.408Z,20.30
2023-11-14T20:28:08.371Z,20.30
2023-11-14T20:30:35.053Z,20.30
2023-11-14T20:33:01.987Z,20.30
2023-11-14T20:35:28.881Z,20.30
2023-11-14T20:37:58.997Z,20.30
2023-11-14T20:40:30.090Z,20.20
2023-11-14T20:42:57.007Z,20.20
2023-11-14T20:45:24.284Z,20.20
2023-11-14T20:47:51.081Z,20.20
2023-11-14T20:50:18.030Z,20.20
2023-11-14T20:52:46.845Z,20.20
2023-11-14T20:55:14.790Z,20.20
2023-11-14T20:57:41.971Z,20.20
2023-11-14T21:00:12.116Z,20.20
2023-11-14T21:02:42.489Z,20.20
2023-11-14T21:05:10.852Z,20.20
2023-11-14T21:07:37.819Z,20.20
2023-11-14T21:10:05.000Z,20.20
2023-11-14T21:12:31.644Z,20.10
2023-11-14T21:14:58.559Z,20.10
2023-11-14T21:17:26.461Z,20.10
2023-11-14T21:19:54.804Z,20.10
2023-11-14T21:22:21.481Z,20.10
2023-11-14T21:24:51.957Z,20.10
2023-11-14T21:27:19.193Z,20.10
2023-11-14T21:29:49.124Z,20.10
2023-11-14T21:32:17.752Z,20.10
2023-11-14T21:34:44.440Z,20.10
2023-11-14T21:37:11.158Z,20.10
2023-11-14T21:39:38.640Z,20.10
2023-11-14T21:42:05.680Z,20.10
2023-11-14T21:44:32.405Z,20.10
2023-11-14T21:46:59.112Z,20.10
2023-11-14T21:49:26.102Z,20.00
2023-11-14T21:51:52.830Z,20.00
2023-11-14T21:54:19.496Z,20.10
2023-11-14T21:56:46.139Z,20.00
2023-11-14T21:59:12.854Z,20.10
2023-11-14T22:01:39.914Z,20.00
2023-11-14T22:04:06.845Z,21.30
2023-11-14T22:06:33.500Z,20.00
2023-11-14T22:09:00.629Z,20.00
2023-11-14T22:11:27.284Z,20.00
2023-11-14T22:13:54.089Z,20.00
2023-11-14T22:16:20.739Z,20.00
2023-11-14T22:18:47.580Z,20.00
2023-11-14T22:21:14.681Z,20.00
2023-11-14T22:23:42.240Z,20.00
2023-11-14T22:26:08.923Z,20.00
2023-11-14T22:28:36.450Z,20.00
2023-11-14T22:31:03.252Z,20.00
2023-11-14T22:33:29.963Z,20.00
2023-11-14T22:35:56.783Z,19.90
2023-11-14T22:38:23.555Z,19.90
2023-11-14T22:40:50.279Z,19.90
2023-11-14T22:43:17.472Z,19.90
2023-11-14T22:45:44.587Z,19.90
2023-11-14T22:48:11.954Z,19.90
2023-11-14T22:50:42.095Z,19.90
2023-11-14T22:53:08.909Z,19.90
2023-11-14T22:55:35.592Z,19.90
2023-11-14T22:58:03.092Z,19.90
2023-11-14T23:00:59.016Z,19.90
2023-11-14T23:03:26.041Z,19.90
2023-11-14T23:05:52.796Z,19.90
2023-11-14T23:08:19.893Z,19.90
2023-11-14T23:10:46.666Z,19.90
2023-11-14T23:13:13.788Z,19.80
2023-11-14T23:15:40.510Z,19.90
2023-11-14T23:18:10.163Z,19.80
2023-11-14T23:20:37.255Z,19.90
2023-11-14T23:23:04.021Z,19.90
2023-11-14T23:25:30.657Z,19.80
2023-11-14T23:27:58.687Z,19.80
2023-11-14T23:30:26.751Z,19.80
2023-11-14T23:32:54.427Z,19.90
2023-11-14T23:35:21.547Z,19.80
2023-11-14T23:37:48.334Z,19.80
2023-11-14T23:40:18.218Z,19.80
2023-11-14T23:42:46.715Z,19.80
2023-11-14T23:45:14.900Z,19.80
2023-11-14T23:47:41.718Z,19.80
2023-11-14T23:50:09.005Z,19.80
2023-11-14T23:52:41.867Z,19.80
2023-11-14T23:55:09.799Z,19.80
2023-11-14T23:57:37.692Z,19.80
